Time;durP1;ratioP1;P1;durP2;ratioP2;P2;SDS_P1;SDS_P2;PMS_P1;PMS_P2;Temp;Humidity;BMP_temperature;BMP_pressure;BME280_temperature;BME280_humidity;BME280_pressure;Samples;Min_cycle;Max_cycle;Signal;HPM_P1;HPM_P2
2023/06/22 00:00:18;;;;;;;10.65;8.88;;;;;;;;;;5074013;28;20615;-64
2023/06/22 00:02:45;;;;;;;11.27;8.30;;;;;;;;;;5074781;28;20217;-66
2023/06/22 00:05:13;;;;;;;10.98;8.15;;;;;;;;;;5071242;28;20251;-65
2023/06/22 00:07:40;;;;;;;12.63;8.68;;;;;;;;;;5078170;28;20204;-63
2023/06/22 00:10:08;;;;;;;13.43;8.50;;;;;;;;;;5080165;28;20626;-65
2023/06/22 00:12:35;;;;;;;13.32;8.77;;;;;;;;;;5057564;28;20217;-65
2023/06/22 00:15:02;;;;;;;12.85;8.45;;;;;;;;;;5074719;28;20205;-64
2023/06/22 00:17:30;;;;;;;15.48;8.77;;;;;;;;;;5069292;28;20221;-65
2023/06/22 00:19:58;;;;;;;9.60;8.30;;;;;;;;;;5051680;28;20202;-65
2023/06/22 00:22:28;;;;;;;14.02;8.40;;;;;;;;;;5066193;28;20216;-65
2023/06/22 00:24:56;;;;;;;14.73;8.13;;;;;;;;;;5076100;28;20581;-66
2023/06/22 00:27:23;;;;;;;10.63;7.93;;;;;;;;;;5065210;28;20217;-66
2023/06/22 00:29:51;;;;;;;10.90;8.20;;;;;;;;;;5072781;28;20205;-66
2023/06/22 00:32:19;;;;;;;11.10;8.13;;;;;;;;;;5080858;28;20706;-65
2023/06/22 00:34:46;;;;;;;12.02;7.95;;;;;;;;;;5075591;28;20210;-65
2023/06/22 00:37:13;;;;;;;15.57;9.23;;;;;;;;;;5046412;28;20311;-64
2023/06/22 00:39:42;;;;;;;11.07;8.43;;;;;;;;;;5079168;28;20208;-66
2023/06/22 00:42:09;;;;;;;10.15;7.32;;;;;;;;;;5069796;28;20613;-65
2023/06/22 00:44:37;;;;;;;11.80;7.25;;;;;;;;;;5055002;28;20668;-65
2023/06/22 00:47:04;;;;;;;15.77;7.65;;;;;;;;;;5074810;28;20682;-65
2023/06/22 00:49:31;;;;;;;10.95;8.10;;;;;;;;;;5055737;28;20620;-65
2023/06/22 00:51:59;;;;;;;14.43;8.52;;;;;;;;;;5076129;28;20270;-64
2023/06/22 00:54:28;;;;;;;13.70;8.35;;;;;;;;;;5050397;28;20209;-63
2023/06/22 00:56:57;;;;;;;13.02;7.53;;;;;;;;;;5071245;28;20213;-64
2023/06/22 00:59:26;;;;;;;11.73;7.22;;;;;;;;;;5069947;28;20710;-64
2023/06/22 01:01:53;;;;;;;14.75;7.75;;;;;;;;;;5071959;28;20247;-65
2023/06/22 01:04:20;;;;;;;10.30;6.82;;;;;;;;;;5081028;28;20201;-64
2023/06/22 01:06:57;;;;;;;11.05;6.85;;;;;;;;;;5077492;28;20205;-65
2023/06/22 01:09:29;;;;;;;10.25;7.07;;;;;;;;;;5074094;28;20215;-65
2023/06/22 01:11:58;;;;;;;12.30;8.30;;;;;;;;;;5075970;28;20664;-65
2023/06/22 01:14:35;;;;;;;10.68;8.52;;;;;;;;;;5065421;28;20208;-65
2023/06/22 01:17:03;;;;;;;20.23;14.20;;;;;;;;;;5053078;28;20232;-65
2023/06/22 01:19:36;;;;;;;15.60;9.77;;;;;;;;;;5072265;28;20262;-64
2023/06/22 01:22:04;;;;;;;13.40;8.88;;;;;;;;;;5069192;28;20589;-64
2023/06/22 01:24:42;;;;;;;15.60;9.77;;;;;;;;;;5075346;28;20271;-64
2023/06/22 01:27:16;;;;;;;12.60;8.95;;;;;;;;;;5060015;28;20207;-64
2023/06/22 01:29:44;;;;;;;12.20;8.63;;;;;;;;;;5069992;28;20208;-64
2023/06/22 01:32:11;;;;;;;14.80;9.57;;;;;;;;;;5053475;28;20561;-65
2023/06/22 01:34:42;;;;;;;18.85;11.55;;;;;;;;;;5053240;28;20205;-64
2023/06/22 01:37:10;;;;;;;13.70;9.15;;;;;;;;;;5079684;28;20703;-64
2023/06/22 01:39:38;;;;;;;13.57;8.63;;;;;;;;;;5053273;28;20209;-64
2023/06/22 01:42:05;;;;;;;10.65;8.85;;;;;;;;;;5055508;28;20267;-64
2023/06/22 01:44:34;;;;;;;11.55;8.88;;;;;;;;;;5063357;28;20209;-64
2023/06/22 01:47:02;;;;;;;14.32;9.15;;;;;;;;;;5066691;28;20668;-64
2023/06/22 01:49:29;;;;;;;11.35;8.60;;;;;;;;;;5046063;28;20262;-64
2023/06/22 01:51:57;;;;;;;14.02;8.57;;;;;;;;;;5074299;28;20233;-64
2023/06/22 01:54:24;;;;;;;11.35;8.32;;;;;;;;;;5073055;28;20205;-64
2023/06/22 01:56:52;;;;;;;11.85;8.57;;;;;;;;;;5066691;28;20228;-64
2023/06/22 01:59:27;;;;;;;10.32;8.32;;;;;;;;;;5058697;28;20259;-65
2023/06/22 02:02:02;;;;;;;10.88;8.57;;;;;;;;;;5059113;28;20257;-64
2023/06/22 02:04:36;;;;;;;14.25;8.30;;;;;;;;;;5047660;28;20202;-64
2023/06/22 02:07:06;;;;;;;15.68;7.90;;;;;;;;;;5052071;28;20205;-64
2023/06/22 02:09:34;;;;;;;11.10;8.43;;;;;;;;;;5050299;28;20202;-64
2023/06/22 02:12:03;;;;;;;11.75;8.30;;;;;;;;;;5069005;28;20208;-64
2023/06/22 02:14:30;;;;;;;10.00;7.82;;;;;;;;;;5068569;28;20205;-64
2023/06/22 02:16:59;;;;;;;10.30;7.60;;;;;;;;;;5072731;28;20285;-64
2023/06/22 02:19:27;;;;;;;11.98;7.15;;;;;;;;;;5076481;28;20197;-64
2023/06/22 02:21:54;;;;;;;8.73;7.72;;;;;;;;;;5064593;28;20950;-64
2023/06/22 02:24:23;;;;;;;10.45;7.40;;;;;;;;;;5070369;28;20202;-64
2023/06/22 02:26:50;;;;;;;9.75;7.25;;;;;;;;;;5051607;28;20213;-65
2023/06/22 02:29:18;;;;;;;11.60;7.82;;;;;;;;;;5061680;28;20206;-65
2023/06/22 02:31:45;;;;;;;8.90;7.18;;;;;;;;;;5065927;28;20220;-64
2023/06/22 02:34:17;;;;;;;12.20;6.70;;;;;;;;;;5049927;28;20635;-63
2023/06/22 02:36:52;;;;;;;13.32;7.38;;;;;;;;;;5073015;28;20309;-64
2023/06/22 02:39:19;;;;;;;12.88;7.57;;;;;;;;;;5070591;28;20600;-64
2023/06/22 02:41:46;;;;;;;9.77;6.65;;;;;;;;;;5075860;28;20255;-64
2023/06/22 02:44:14;;;;;;;13.60;7.53;;;;;;;;;;5066042;28;20205;-64
2023/06/22 02:46:41;;;;;;;12.82;8.30;;;;;;;;;;5062377;28;20551;-64
2023/06/22 02:49:08;;;;;;;13.63;8.25;;;;;;;;;;5082404;28;20608;-65
2023/06/22 02:51:36;;;;;;;11.65;7.93;;;;;;;;;;5082341;28;20242;-63
2023/06/22 02:54:04;;;;;;;10.35;6.93;;;;;;;;;;5080671;28;20221;-64
2023/06/22 02:56:32;;;;;;;11.38;8.90;;;;;;;;;;5078435;28;20205;-65
2023/06/22 02:59:02;;;;;;;11.00;7.22;;;;;;;;;;5077928;28;20201;-65
2023/06/22 03:01:30;;;;;;;12.30;7.40;;;;;;;;;;5075499;28;20200;-64
2023/06/22 03:03:58;;;;;;;10.52;7.60;;;;;;;;;;5071858;28;20224;-64
2023/06/22 03:06:28;;;;;;;10.70;7.65;;;;;;;;;;5077507;28;20288;-64
2023/06/22 03:09:03;;;;;;;15.40;7.18;;;;;;;;;;5067165;28;20198;-63
2023/06/22 03:11:34;;;;;;;15.32;7.50;;;;;;;;;;5078615;28;20683;-64
2023/06/22 03:14:01;;;;;;;12.55;8.38;;;;;;;;;;5052916;28;20699;-64
2023/06/22 03:16:29;;;;;;;9.38;6.65;;;;;;;;;;5056706;28;20204;-64
2023/06/22 03:18:56;;;;;;;11.65;7.00;;;;;;;;;;5074673;28;20755;-64
2023/06/22 03:21:24;;;;;;;11.38;6.63;;;;;;;;;;5073799;28;20244;-64
2023/06/22 03:23:51;;;;;;;9.60;6.28;;;;;;;;;;5081759;28;20263;-64
2023/06/22 03:26:20;;;;;;;10.30;6.45;;;;;;;;;;5085064;28;20205;-64
2023/06/22 03:28:48;;;;;;;8.32;5.38;;;;;;;;;;5060222;28;20207;-64
2023/06/22 03:31:15;;;;;;;8.75;6.20;;;;;;;;;;5056040;28;20202;-64
2023/06/22 03:33:42;;;;;;;8.25;5.95;;;;;;;;;;5072184;28;20244;-64
2023/06/22 03:36:11;;;;;;;6.80;5.30;;;;;;;;;;5064877;28;20865;-64
2023/06/22 03:38:38;;;;;;;8.68;5.38;;;;;;;;;;5066901;28;20244;-64
2023/06/22 03:41:09;;;;;;;9.23;5.40;;;;;;;;;;5064080;28;20246;-64
2023/06/22 03:43:36;;;;;;;10.00;5.30;;;;;;;;;;5066836;28;20572;-64
2023/06/22 03:46:03;;;;;;;7.10;5.20;;;;;;;;;;5058904;28;20202;-64
2023/06/22 03:48:31;;;;;;;9.93;5.07;;;;;;;;;;5077128;28;20658;-64
2023/06/22 03:51:00;;;;;;;7.32;4.97;;;;;;;;;;5063312;28;20423;-64
2023/06/22 03:53:27;;;;;;;8.82;6.35;;;;;;;;;;5057551;28;20275;-64
2023/06/22 03:55:54;;;;;;;6.78;5.18;;;;;;;;;;5048002;28;20201;-64
2023/06/22 03:58:22;;;;;;;7.60;4.57;;;;;;;;;;5063384;28;20225;-64
2023/06/22 04:00:50;;;;;;;5.38;4.60;;;;;;;;;;5066941;28;20209;-64
2023/06/22 04:03:19;;;;;;;7.57;4.68;;;;;;;;;;5062896;28;20225;-64
2023/06/22 04:05:48;;;;;;;11.68;5.18;;;;;;;;;;5057322;28;20736;-64
2023/06/22 04:08:15;;;;;;;8.57;4.72;;;;;;;;;;5064267;28;20213;-64
2023/06/22 04:10:43;;;;;;;8.30;4.90;;;;;;;;;;5054110;28;20209;-63
2023/06/22 04:13:10;;;;;;;9.50;5.00;;;;;;;;;;5045917;28;20615;-64
2023/06/22 04:15:37;;;;;;;9.23;5.18;;;;;;;;;;5037540;28;20208;-63
2023/06/22 04:18:05;;;;;;;7.78;5.57;;;;;;;;;;5038534;28;20687;-64
2023/06/22 04:20:32;;;;;;;7.50;5.38;;;;;;;;;;5065422;28;20312;-64
2023/06/22 04:23:00;;;;;;;9.30;5.80;;;;;;;;;;5061035;28;20368;-64
2023/06/22 04:25:27;;;;;;;8.32;5.90;;;;;;;;;;5054932;28;20206;-64
2023/06/22 04:27:55;;;;;;;9.07;5.30;;;;;;;;;;5062150;28;20202;-65
2023/06/22 04:30:22;;;;;;;9.10;6.05;;;;;;;;;;5062233;28;20651;-64
2023/06/22 04:32:57;;;;;;;12.60;6.72;;;;;;;;;;5069433;28;20288;-64
2023/06/22 04:35:25;;;;;;;9.70;6.38;;;;;;;;;;5091084;28;20207;-65
2023/06/22 04:37:54;;;;;;;12.65;6.90;;;;;;;;;;5077596;28;20228;-64
2023/06/22 04:40:23;;;;;;;11.02;6.90;;;;;;;;;;5062154;28;20204;-65
2023/06/22 04:42:53;;;;;;;11.45;6.88;;;;;;;;;;5062147;28;20224;-65
2023/06/22 04:45:21;;;;;;;11.10;6.90;;;;;;;;;;5058526;28;20200;-65
2023/06/22 04:47:49;;;;;;;12.43;7.68;;;;;;;;;;5068106;28;20224;-65
2023/06/22 04:50:17;;;;;;;11.32;7.03;;;;;;;;;;5038021;28;20297;-64
2023/06/22 04:52:45;;;;;;;11.50;6.18;;;;;;;;;;5048392;28;20227;-64
2023/06/22 04:55:18;;;;;;;12.63;7.07;;;;;;;;;;5052928;28;20986;-64
2023/06/22 04:57:49;;;;;;;9.38;6.93;;;;;;;;;;5056908;28;20491;-64
2023/06/22 05:00:19;;;;;;;8.75;6.03;;;;;;;;;;5063812;28;20200;-64
2023/06/22 05:02:47;;;;;;;8.65;6.25;;;;;;;;;;5062667;28;20226;-63
2023/06/22 05:05:15;;;;;;;9.63;6.60;;;;;;;;;;5059714;28;20209;-64
2023/06/22 05:07:48;;;;;;;9.75;6.65;;;;;;;;;;5056430;28;20221;-63
2023/06/22 05:10:16;;;;;;;7.78;6.60;;;;;;;;;;5055524;28;20754;-65
2023/06/22 05:12:47;;;;;;;9.95;6.78;;;;;;;;;;5052464;28;20771;-64
2023/06/22 05:15:15;;;;;;;9.15;6.57;;;;;;;;;;5060794;28;20374;-65
2023/06/22 05:17:47;;;;;;;11.15;7.25;;;;;;;;;;5054476;28;20240;-64
2023/06/22 05:20:17;;;;;;;11.25;6.78;;;;;;;;;;5056714;28;20196;-64
2023/06/22 05:22:45;;;;;;;8.57;6.93;;;;;;;;;;5058219;28;20324;-64
2023/06/22 05:25:13;;;;;;;9.38;5.72;;;;;;;;;;5051401;28;20213;-65
2023/06/22 05:27:41;;;;;;;9.75;6.20;;;;;;;;;;5053542;28;20198;-65
2023/06/22 05:30:09;;;;;;;11.80;5.78;;;;;;;;;;5065054;28;20210;-63
2023/06/22 05:32:37;;;;;;;9.02;5.55;;;;;;;;;;5052653;28;20317;-64
2023/06/22 05:35:04;;;;;;;8.45;5.60;;;;;;;;;;5060032;28;20210;-63
2023/06/22 05:37:32;;;;;;;9.82;4.85;;;;;;;;;;5063280;28;20230;-63
2023/06/22 05:40:00;;;;;;;5.85;5.00;;;;;;;;;;5072751;28;20206;-63
2023/06/22 05:42:31;;;;;;;7.25;4.85;;;;;;;;;;5063240;28;20218;-64
2023/06/22 05:44:58;;;;;;;7.25;5.32;;;;;;;;;;5067951;28;20202;-63
2023/06/22 05:47:26;;;;;;;7.55;4.97;;;;;;;;;;5063868;28;20198;-64
2023/06/22 05:49:53;;;;;;;8.23;5.60;;;;;;;;;;5066443;28;20243;-64
2023/06/22 05:52:21;;;;;;;8.05;4.82;;;;;;;;;;5066603;28;20229;-64
2023/06/22 05:54:48;;;;;;;7.18;5.13;;;;;;;;;;5064846;28;20510;-64
2023/06/22 05:57:15;;;;;;;5.30;4.68;;;;;;;;;;5072108;28;20220;-64
2023/06/22 05:59:42;;;;;;;6.20;4.88;;;;;;;;;;5064673;28;20209;-64
2023/06/22 06:02:10;;;;;;;9.15;5.07;;;;;;;;;;5072005;28;20236;-64
2023/06/22 06:04:37;;;;;;;8.18;5.47;;;;;;;;;;5053818;28;20231;-64
2023/06/22 06:07:04;;;;;;;7.82;5.55;;;;;;;;;;5059705;28;20301;-64
2023/06/22 06:09:32;;;;;;;8.10;5.43;;;;;;;;;;5068410;28;20202;-65
2023/06/22 06:11:59;;;;;;;7.90;5.40;;;;;;;;;;5082884;28;20219;-65
2023/06/22 06:14:26;;;;;;;7.78;5.78;;;;;;;;;;5068204;28;20292;-64
2023/06/22 06:16:56;;;;;;;8.90;5.85;;;;;;;;;;5066012;28;20209;-64
2023/06/22 06:19:27;;;;;;;9.40;5.97;;;;;;;;;;5072744;28;20217;-64
2023/06/22 06:21:55;;;;;;;7.85;6.47;;;;;;;;;;5063506;28;20200;-64
2023/06/22 06:24:22;;;;;;;8.20;5.88;;;;;;;;;;5064374;28;20361;-65
2023/06/22 06:26:49;;;;;;;8.63;6.32;;;;;;;;;;5062634;28;20206;-65
2023/06/22 06:29:17;;;;;;;8.82;6.07;;;;;;;;;;5070574;28;20208;-65
2023/06/22 06:31:44;;;;;;;9.40;5.88;;;;;;;;;;5064693;28;20296;-65
2023/06/22 06:34:12;;;;;;;9.20;6.57;;;;;;;;;;5067265;28;20194;-68
2023/06/22 06:36:39;;;;;;;9.32;5.75;;;;;;;;;;5067709;28;20250;-65
2023/06/22 06:39:06;;;;;;;8.57;5.88;;;;;;;;;;5079425;28;20221;-68
2023/06/22 06:41:34;;;;;;;10.48;5.72;;;;;;;;;;5076110;28;20283;-68
2023/06/22 06:44:01;;;;;;;8.20;6.30;;;;;;;;;;5074667;28;20232;-64
2023/06/22 06:46:28;;;;;;;12.32;6.82;;;;;;;;;;5081144;28;20243;-64
2023/06/22 06:48:56;;;;;;;8.73;5.88;;;;;;;;;;5063594;28;20285;-65
2023/06/22 06:51:23;;;;;;;10.35;6.05;;;;;;;;;;5066286;28;20209;-64
2023/06/22 06:53:51;;;;;;;8.32;5.82;;;;;;;;;;5067249;28;20926;-64
2023/06/22 06:56:18;;;;;;;9.30;6.40;;;;;;;;;;5073196;28;20201;-64
2023/06/22 06:58:45;;;;;;;11.93;7.00;;;;;;;;;;5073920;28;20303;-64
2023/06/22 07:01:13;;;;;;;12.15;6.45;;;;;;;;;;5062748;28;20193;-64
2023/06/22 07:03:41;;;;;;;8.98;6.10;;;;;;;;;;5058100;28;20229;-64
2023/06/22 07:06:11;;;;;;;11.70;6.68;;;;;;;;;;5059344;28;20206;-64
2023/06/22 07:08:39;;;;;;;9.27;6.40;;;;;;;;;;5052231;28;20208;-64
2023/06/22 07:11:07;;;;;;;9.05;6.75;;;;;;;;;;5065935;28;20591;-64
2023/06/22 07:13:34;;;;;;;9.05;6.32;;;;;;;;;;5049692;28;20226;-64
2023/06/22 07:16:01;;;;;;;9.27;6.78;;;;;;;;;;5051184;28;20206;-64
2023/06/22 07:18:29;;;;;;;9.50;6.30;;;;;;;;;;5054909;28;20218;-63
2023/06/22 07:20:56;;;;;;;11.55;7.28;;;;;;;;;;5053214;28;20655;-63
2023/06/22 07:23:23;;;;;;;13.30;6.93;;;;;;;;;;5070146;28;20229;-64
2023/06/22 07:25:51;;;;;;;10.88;6.70;;;;;;;;;;5067831;28;20200;-64
2023/06/22 07:28:19;;;;;;;12.52;7.10;;;;;;;;;;5069631;28;20279;-63
2023/06/22 07:30:46;;;;;;;10.13;6.55;;;;;;;;;;5061613;28;20342;-64
2023/06/22 07:33:14;;;;;;;11.45;7.18;;;;;;;;;;5056105;28;20711;-64
2023/06/22 07:35:41;;;;;;;8.88;6.63;;;;;;;;;;5077731;28;20573;-63
2023/06/22 07:38:10;;;;;;;11.95;6.70;;;;;;;;;;5067988;28;20232;-63
2023/06/22 07:40:37;;;;;;;10.77;7.13;;;;;;;;;;5056251;28;20193;-64
2023/06/22 07:43:05;;;;;;;12.40;6.15;;;;;;;;;;5064100;28;21012;-65
2023/06/22 07:45:34;;;;;;;9.15;6.00;;;;;;;;;;5046129;28;20235;-65
2023/06/22 07:48:02;;;;;;;12.30;6.72;;;;;;;;;;5044207;28;20662;-65
2023/06/22 07:50:29;;;;;;;7.55;5.75;;;;;;;;;;5068996;28;20289;-65
2023/06/22 07:52:57;;;;;;;12.93;6.47;;;;;;;;;;5066305;28;20217;-64
2023/06/22 07:55:25;;;;;;;11.80;6.30;;;;;;;;;;5054837;28;20205;-64
2023/06/22 07:57:52;;;;;;;10.45;6.00;;;;;;;;;;5058400;28;20252;-65
2023/06/22 08:00:20;;;;;;;12.05;6.47;;;;;;;;;;5053414;28;20450;-64
2023/06/22 08:02:48;;;;;;;11.75;6.25;;;;;;;;;;5064476;28;20313;-65
2023/06/22 08:05:17;;;;;;;12.18;6.30;;;;;;;;;;5060002;28;20430;-64
2023/06/22 08:07:49;;;;;;;11.98;6.68;;;;;;;;;;5061239;28;20201;-64
2023/06/22 08:10:17;;;;;;;9.45;5.57;;;;;;;;;;5054825;28;20202;-64
2023/06/22 08:12:44;;;;;;;9.35;5.57;;;;;;;;;;5058453;28;20229;-65
2023/06/22 08:15:12;;;;;;;9.55;6.38;;;;;;;;;;5066271;28;20219;-64
2023/06/22 08:17:39;;;;;;;13.32;6.20;;;;;;;;;;5072666;28;20208;-65
2023/06/22 08:20:13;;;;;;;23.92;6.15;;;;;;;;;;5023197;28;20686;-63
2023/06/22 08:22:42;;;;;;;10.85;6.40;;;;;;;;;;5058283;28;20226;-63
2023/06/22 08:25:09;;;;;;;13.60;6.03;;;;;;;;;;5074077;28;20593;-64
2023/06/22 08:27:37;;;;;;;11.57;6.63;;;;;;;;;;5052313;28;20203;-64
2023/06/22 08:30:05;;;;;;;12.93;6.55;;;;;;;;;;5075258;28;20566;-63
2023/06/22 08:32:32;;;;;;;9.00;5.78;;;;;;;;;;5062432;28;20233;-63
2023/06/22 08:35:00;;;;;;;6.93;5.63;;;;;;;;;;5066912;28;20495;-65
2023/06/22 08:37:35;;;;;;;10.05;6.60;;;;;;;;;;5066911;28;20674;-65
2023/06/22 08:40:09;;;;;;;10.75;6.15;;;;;;;;;;5077202;28;20233;-66
2023/06/22 08:42:38;;;;;;;11.52;6.28;;;;;;;;;;5055915;28;20794;-65
2023/06/22 08:45:05;;;;;;;7.93;5.85;;;;;;;;;;5059854;28;20262;-65
2023/06/22 08:47:33;;;;;;;11.07;6.65;;;;;;;;;;5068179;28;20673;-65
2023/06/22 08:50:03;;;;;;;10.20;6.97;;;;;;;;;;5069561;28;20485;-64
2023/06/22 08:52:30;;;;;;;10.45;7.50;;;;;;;;;;5068527;28;20228;-65
2023/06/22 08:55:01;;;;;;;9.80;6.55;;;;;;;;;;5064746;28;20609;-65
2023/06/22 08:57:28;;;;;;;15.45;7.10;;;;;;;;;;5075963;28;20254;-64
2023/06/22 08:59:58;;;;;;;9.10;6.63;;;;;;;;;;5063160;28;20228;-65
2023/06/22 09:02:30;;;;;;;14.40;7.55;;;;;;;;;;5068202;28;20229;-65
2023/06/22 09:04:58;;;;;;;10.88;6.40;;;;;;;;;;5069709;28;20189;-65
2023/06/22 09:07:26;;;;;;;10.77;5.95;;;;;;;;;;5068614;28;20620;-65
2023/06/22 09:09:53;;;;;;;9.68;6.32;;;;;;;;;;5045562;28;20213;-65
2023/06/22 09:12:25;;;;;;;10.07;6.35;;;;;;;;;;5054071;28;20312;-65
2023/06/22 09:14:52;;;;;;;13.55;5.95;;;;;;;;;;5068235;28;20288;-65
2023/06/22 09:17:20;;;;;;;9.93;5.90;;;;;;;;;;5064981;28;20205;-65
2023/06/22 09:19:48;;;;;;;10.85;5.45;;;;;;;;;;5070563;28;20221;-65
2023/06/22 09:22:15;;;;;;;10.43;5.72;;;;;;;;;;5056561;28;20218;-65
2023/06/22 09:24:43;;;;;;;10.00;6.40;;;;;;;;;;5057820;28;20213;-65
2023/06/22 09:27:10;;;;;;;10.98;5.75;;;;;;;;;;5060535;28;20655;-65
2023/06/22 09:29:37;;;;;;;11.73;5.80;;;;;;;;;;5068802;28;20217;-65
2023/06/22 09:32:05;;;;;;;9.00;5.40;;;;;;;;;;5060442;28;20201;-65
2023/06/22 09:34:32;;;;;;;9.77;5.38;;;;;;;;;;5060607;28;20197;-65
2023/06/22 09:37:03;;;;;;;9.90;5.70;;;;;;;;;;5050605;28;20208;-66
2023/06/22 09:39:30;;;;;;;12.63;5.90;;;;;;;;;;5050967;28;20225;-65
2023/06/22 09:42:00;;;;;;;10.98;5.57;;;;;;;;;;5052538;28;20198;-65
2023/06/22 09:44:27;;;;;;;10.43;5.60;;;;;;;;;;5059210;28;20205;-66
2023/06/22 09:46:57;;;;;;;10.40;6.10;;;;;;;;;;5067038;28;20196;-65
2023/06/22 09:49:24;;;;;;;10.45;5.38;;;;;;;;;;5057885;28;20213;-66
2023/06/22 09:52:12;;;;;;;14.10;6.20;;;;;;;;;;5066471;28;20301;-65
2023/06/22 09:54:39;;;;;;;8.80;5.43;;;;;;;;;;5082863;28;20212;-65
2023/06/22 09:57:06;;;;;;;11.48;5.45;;;;;;;;;;5074213;28;20210;-65
2023/06/22 09:59:34;;;;;;;8.98;5.78;;;;;;;;;;5064610;28;20299;-65
2023/06/22 10:02:01;;;;;;;15.23;5.50;;;;;;;;;;5068292;28;20232;-65
2023/06/22 10:04:28;;;;;;;11.30;5.53;;;;;;;;;;5043351;28;20736;-66
2023/06/22 10:06:56;;;;;;;9.52;5.53;;;;;;;;;;5063513;28;20204;-66
2023/06/22 10:09:23;;;;;;;11.02;5.47;;;;;;;;;;5070047;28;20270;-66
2023/06/22 10:11:52;;;;;;;8.13;5.25;;;;;;;;;;5069898;28;20260;-66
2023/06/22 10:14:19;;;;;;;9.27;5.50;;;;;;;;;;5058142;28;20227;-65
2023/06/22 10:16:47;;;;;;;11.90;5.75;;;;;;;;;;5059396;28;20202;-65
2023/06/22 10:19:14;;;;;;;11.15;5.70;;;;;;;;;;5061028;28;20233;-66
2023/06/22 10:21:41;;;;;;;10.02;5.43;;;;;;;;;;5047595;28;20200;-66
2023/06/22 10:24:09;;;;;;;12.05;5.60;;;;;;;;;;5063360;28;20236;-66
2023/06/22 10:26:36;;;;;;;10.27;6.00;;;;;;;;;;5059354;28;20587;-66
2023/06/22 10:29:04;;;;;;;12.02;5.57;;;;;;;;;;5067095;28;20210;-66
2023/06/22 10:31:34;;;;;;;12.85;6.30;;;;;;;;;;5065161;28;20205;-64
2023/06/22 10:34:02;;;;;;;9.25;5.68;;;;;;;;;;5070210;28;20256;-64
2023/06/22 10:36:29;;;;;;;12.27;5.78;;;;;;;;;;5080061;28;20666;-65
2023/06/22 10:38:59;;;;;;;10.60;5.70;;;;;;;;;;5071697;28;20616;-64
2023/06/22 10:41:29;;;;;;;13.20;5.63;;;;;;;;;;5063141;28;20204;-64
2023/06/22 10:43:57;;;;;;;10.52;5.55;;;;;;;;;;5070267;28;20257;-65
2023/06/22 10:46:26;;;;;;;13.23;5.70;;;;;;;;;;5080326;28;20230;-64
2023/06/22 10:48:55;;;;;;;12.00;5.97;;;;;;;;;;5064574;28;20212;-64
2023/06/22 10:51:22;;;;;;;12.65;5.55;;;;;;;;;;5071041;28;20247;-65
2023/06/22 10:53:50;;;;;;;12.80;6.00;;;;;;;;;;5071480;28;20684;-64
2023/06/22 10:56:19;;;;;;;11.00;5.65;;;;;;;;;;5067164;28;20255;-65
2023/06/22 10:58:46;;;;;;;11.27;6.70;;;;;;;;;;5070115;28;20213;-65
2023/06/22 11:01:14;;;;;;;10.50;5.63;;;;;;;;;;5052618;28;20206;-64
2023/06/22 11:04:01;;;;;;;11.70;5.30;;;;;;;;;;5061465;28;20502;-64
2023/06/22 11:06:28;;;;;;;9.85;5.55;;;;;;;;;;5067715;28;20420;-65
2023/06/22 11:08:58;;;;;;;10.77;5.15;;;;;;;;;;5069168;28;20223;-65
2023/06/22 11:11:43;;;;;;;13.38;5.53;;;;;;;;;;5059773;28;20686;-64
2023/06/22 11:14:10;;;;;;;9.55;5.30;;;;;;;;;;5073137;28;20251;-65
2023/06/22 11:16:38;;;;;;;12.35;5.47;;;;;;;;;;5067971;28;20192;-65
2023/06/22 11:19:05;;;;;;;9.63;5.30;;;;;;;;;;5060158;28;20643;-65
2023/06/22 11:21:33;;;;;;;12.35;5.78;;;;;;;;;;5069611;28;20193;-65
2023/06/22 11:24:00;;;;;;;10.32;5.28;;;;;;;;;;5060520;28;20260;-65
2023/06/22 11:26:28;;;;;;;10.77;5.45;;;;;;;;;;5057830;28;20205;-65
2023/06/22 11:28:55;;;;;;;10.60;5.47;;;;;;;;;;5065811;28;20224;-65
2023/06/22 11:31:22;;;;;;;11.82;6.47;;;;;;;;;;5062507;28;20717;-65
2023/06/22 11:33:52;;;;;;;13.10;7.30;;;;;;;;;;5066771;28;20222;-65
2023/06/22 11:36:20;;;;;;;13.80;5.80;;;;;;;;;;5058933;28;20511;-66
2023/06/22 11:38:47;;;;;;;14.15;5.78;;;;;;;;;;5051943;28;20709;-65
2023/06/22 11:41:15;;;;;;;15.15;5.57;;;;;;;;;;5064720;28;20479;-65
2023/06/22 11:43:42;;;;;;;11.52;5.82;;;;;;;;;;5056947;28;20476;-65
2023/06/22 11:46:09;;;;;;;12.15;5.72;;;;;;;;;;5063611;28;20572;-65
2023/06/22 11:48:37;;;;;;;13.27;6.57;;;;;;;;;;5068352;28;20212;-65
2023/06/22 11:51:06;;;;;;;14.38;5.55;;;;;;;;;;5053991;28;20220;-65
2023/06/22 11:53:35;;;;;;;16.33;5.93;;;;;;;;;;5050561;28;20294;-65
2023/06/22 11:56:02;;;;;;;8.40;5.47;;;;;;;;;;5050307;28;20686;-65
2023/06/22 11:58:29;;;;;;;12.15;5.55;;;;;;;;;;5054034;28;20215;-65
2023/06/22 12:00:57;;;;;;;12.40;5.68;;;;;;;;;;5059831;28;20228;-64
2023/06/22 12:03:24;;;;;;;13.55;5.47;;;;;;;;;;5072262;28;20240;-66
2023/06/22 12:05:53;;;;;;;13.85;5.78;;;;;;;;;;5070030;28;20224;-65
2023/06/22 12:08:21;;;;;;;8.95;4.97;;;;;;;;;;5069480;28;20209;-65
2023/06/22 12:10:50;;;;;;;9.82;5.05;;;;;;;;;;5070064;28;20338;-66
2023/06/22 12:13:17;;;;;;;13.55;5.80;;;;;;;;;;5066892;28;20617;-66
2023/06/22 12:15:44;;;;;;;16.52;5.65;;;;;;;;;;5063504;28;20213;-68
2023/06/22 12:18:14;;;;;;;12.55;5.53;;;;;;;;;;5065324;28;20250;-66
2023/06/22 12:20:41;;;;;;;15.25;6.20;;;;;;;;;;5066071;28;20212;-65
2023/06/22 12:23:09;;;;;;;9.30;5.65;;;;;;;;;;5050579;28;20221;-65
2023/06/22 12:25:36;;;;;;;10.48;5.70;;;;;;;;;;5053323;28;20424;-63
2023/06/22 12:28:04;;;;;;;12.13;5.70;;;;;;;;;;5070707;28;20205;-64
2023/06/22 12:30:33;;;;;;;12.63;6.22;;;;;;;;;;5064155;28;20667;-64
2023/06/22 12:33:00;;;;;;;10.52;5.50;;;;;;;;;;5069133;28;20270;-64
2023/06/22 12:35:27;;;;;;;11.77;5.43;;;;;;;;;;5069753;28;20225;-63
2023/06/22 12:37:55;;;;;;;10.43;5.55;;;;;;;;;;5073167;28;20204;-69
2023/06/22 12:40:22;;;;;;;11.32;5.22;;;;;;;;;;5066395;28;20230;-64
2023/06/22 12:42:49;;;;;;;10.43;5.20;;;;;;;;;;5068091;28;20229;-65
2023/06/22 12:45:17;;;;;;;13.98;6.28;;;;;;;;;;5062064;28;20201;-67
2023/06/22 12:47:44;;;;;;;8.68;5.78;;;;;;;;;;5065193;28;20663;-64
2023/06/22 12:50:12;;;;;;;12.55;6.20;;;;;;;;;;5068835;28;20209;-65
2023/06/22 12:52:40;;;;;;;12.30;6.47;;;;;;;;;;5068763;28;20278;-63
2023/06/22 12:55:08;;;;;;;11.73;5.88;;;;;;;;;;5063986;28;20300;-68
2023/06/22 12:57:35;;;;;;;12.05;5.88;;;;;;;;;;5066990;28;20214;-67
2023/06/22 13:00:05;;;;;;;10.48;5.53;;;;;;;;;;5065166;28;20658;-66
2023/06/22 13:02:33;;;;;;;12.95;5.55;;;;;;;;;;5066097;28;20274;-66
2023/06/22 13:05:00;;;;;;;9.88;5.72;;;;;;;;;;5058315;28;20281;-65
2023/06/22 13:07:28;;;;;;;9.15;5.80;;;;;;;;;;5046411;28;20197;-64
2023/06/22 13:09:55;;;;;;;11.02;6.25;;;;;;;;;;5059409;28;20205;-64
2023/06/22 13:12:22;;;;;;;10.70;5.82;;;;;;;;;;5045786;28;20703;-69
2023/06/22 13:14:50;;;;;;;11.73;5.68;;;;;;;;;;5065567;28;20202;-65
2023/06/22 13:17:17;;;;;;;11.32;5.53;;;;;;;;;;5066152;28;20205;-66
2023/06/22 13:19:45;;;;;;;11.10;5.70;;;;;;;;;;5069954;28;20226;-65
2023/06/22 13:22:32;;;;;;;15.43;6.13;;;;;;;;;;5071020;28;20220;-64
2023/06/22 13:25:00;;;;;;;11.73;6.28;;;;;;;;;;5062702;28;20214;-66
2023/06/22 13:27:27;;;;;;;9.05;5.53;;;;;;;;;;5071498;28;20451;-65
2023/06/22 13:29:54;;;;;;;11.88;6.28;;;;;;;;;;5061686;28;20204;-62
2023/06/22 13:32:22;;;;;;;11.05;5.65;;;;;;;;;;5066859;28;20225;-64
2023/06/22 13:34:49;;;;;;;9.60;5.63;;;;;;;;;;5068602;28;20324;-69
2023/06/22 13:37:16;;;;;;;11.75;5.80;;;;;;;;;;5067389;28;20201;-67
2023/06/22 13:39:45;;;;;;;11.48;5.75;;;;;;;;;;5063525;28;20707;-65
2023/06/22 13:42:12;;;;;;;13.77;6.25;;;;;;;;;;5063418;28;20226;-67
2023/06/22 13:44:39;;;;;;;12.65;6.18;;;;;;;;;;5070931;28;20193;-64
2023/06/22 13:47:08;;;;;;;10.65;5.10;;;;;;;;;;5066862;28;20212;-65
2023/06/22 13:49:36;;;;;;;11.80;5.75;;;;;;;;;;5067443;28;20254;-66
2023/06/22 13:52:06;;;;;;;11.40;5.80;;;;;;;;;;5060999;28;20203;-64
2023/06/22 13:54:34;;;;;;;11.38;5.40;;;;;;;;;;5064271;28;20709;-62
2023/06/22 13:57:02;;;;;;;12.18;6.90;;;;;;;;;;5062694;28;20391;-64
2023/06/22 13:59:30;;;;;;;10.23;5.35;;;;;;;;;;5060492;28;20480;-65
2023/06/22 14:01:57;;;;;;;11.65;5.20;;;;;;;;;;5063101;28;20198;-69
2023/06/22 14:04:25;;;;;;;8.43;4.85;;;;;;;;;;5059052;28;20266;-67
2023/06/22 14:06:52;;;;;;;11.57;4.90;;;;;;;;;;5060942;28;20743;-63
2023/06/22 14:09:23;;;;;;;10.55;5.15;;;;;;;;;;5064593;28;20713;-64
2023/06/22 14:11:50;;;;;;;9.45;5.50;;;;;;;;;;5049602;28;20493;-64
2023/06/22 14:14:18;;;;;;;8.43;4.75;;;;;;;;;;5061322;28;20217;-67
2023/06/22 14:16:45;;;;;;;11.93;5.68;;;;;;;;;;5069132;28;20205;-66
2023/06/22 14:19:12;;;;;;;15.85;5.93;;;;;;;;;;5063626;28;20351;-63
2023/06/22 14:21:39;;;;;;;12.70;6.03;;;;;;;;;;5066156;28;20217;-65
2023/06/22 14:24:07;;;;;;;9.20;5.35;;;;;;;;;;5055301;28;20225;-63
2023/06/22 14:26:34;;;;;;;12.38;5.95;;;;;;;;;;5061027;28;20251;-67
2023/06/22 14:29:01;;;;;;;13.38;6.25;;;;;;;;;;5056465;28;21592;-66
2023/06/22 14:31:29;;;;;;;12.35;6.35;;;;;;;;;;5060762;28;20270;-69
2023/06/22 14:33:56;;;;;;;13.60;5.45;;;;;;;;;;5060443;28;20655;-67
2023/06/22 14:36:23;;;;;;;10.02;4.63;;;;;;;;;;5060320;28;20202;-68
2023/06/22 14:38:51;;;;;;;9.25;4.95;;;;;;;;;;5067338;28;20206;-67